Time;durP1;ratioP1;P1;durP2;ratioP2;P2;SDS_P1;SDS_P2;PMS_P1;PMS_P2;Temp;Humidity;BMP_temperature;BMP_pressure;BME280_temperature;BME280_humidity;BME280_pressure;Samples;Min_cycle;Max_cycle;Signal;HPM_P1;HPM_P2
2023/05/06 00:01:45;;;;;;;10.77;6.60;;;;;;;;;;5082692;28;20055;-83
2023/05/06 00:04:11;;;;;;;9.05;7.10;;;;;;;;;;5082826;28;20079;-83
2023/05/06 00:06:37;;;;;;;9.63;7.40;;;;;;;;;;5083008;28;20512;-82
2023/05/06 00:09:03;;;;;;;11.02;7.22;;;;;;;;;;5083015;28;20044;-81
2023/05/06 00:11:29;;;;;;;8.45;6.55;;;;;;;;;;5082778;28;20465;-81
2023/05/06 00:13:55;;;;;;;10.80;6.78;;;;;;;;;;5082067;28;20044;-83
2023/05/06 00:16:22;;;;;;;8.93;6.90;;;;;;;;;;5082930;28;20048;-83
2023/05/06 00:18:48;;;;;;;9.48;6.80;;;;;;;;;;5082829;28;20094;-83
2023/05/06 00:21:14;;;;;;;9.98;6.72;;;;;;;;;;5082257;28;20082;-82
2023/05/06 00:23:41;;;;;;;9.63;6.93;;;;;;;;;;5083298;28;20494;-82
2023/05/06 00:26:07;;;;;;;9.95;7.55;;;;;;;;;;5082669;28;20037;-82
2023/05/06 00:28:33;;;;;;;11.30;8.00;;;;;;;;;;5083009;28;20040;-82
2023/05/06 00:30:59;;;;;;;11.60;7.93;;;;;;;;;;5083155;28;20045;-82
2023/05/06 00:33:26;;;;;;;10.65;7.85;;;;;;;;;;5083146;28;20124;-82
2023/05/06 00:35:52;;;;;;;10.27;7.38;;;;;;;;;;5084945;28;20041;-81
2023/05/06 00:38:18;;;;;;;8.75;6.95;;;;;;;;;;5086958;28;20058;-83
2023/05/06 00:40:44;;;;;;;9.57;6.93;;;;;;;;;;5087367;28;20053;-81
2023/05/06 00:43:11;;;;;;;12.18;7.65;;;;;;;;;;5082789;28;20041;-82
2023/05/06 00:45:37;;;;;;;9.25;7.30;;;;;;;;;;5084261;28;20049;-82
2023/05/06 00:48:04;;;;;;;10.60;7.75;;;;;;;;;;5084952;28;20059;-82
2023/05/06 00:50:32;;;;;;;10.23;7.97;;;;;;;;;;5086428;28;20037;-82
2023/05/06 00:52:58;;;;;;;11.93;8.98;;;;;;;;;;5086030;28;20060;-83
2023/05/06 00:55:25;;;;;;;11.52;10.18;;;;;;;;;;5086600;28;20098;-82
2023/05/06 00:57:51;;;;;;;13.60;10.52;;;;;;;;;;5086116;28;20124;-82
2023/05/06 01:00:19;;;;;;;12.43;9.85;;;;;;;;;;5086500;28;20120;-82
2023/05/06 01:02:45;;;;;;;12.80;10.77;;;;;;;;;;5085579;28;20076;-82
2023/05/06 01:05:11;;;;;;;12.93;10.68;;;;;;;;;;5086319;28;20052;-82
2023/05/06 01:07:56;;;;;;;12.73;9.85;;;;;;;;;;5085865;28;20041;-81
2023/05/06 01:10:30;;;;;;;13.30;11.10;;;;;;;;;;5085388;28;20037;-82
2023/05/06 01:13:07;;;;;;;13.10;11.65;;;;;;;;;;5084512;28;20040;-82
2023/05/06 01:15:37;;;;;;;13.88;12.05;;;;;;;;;;5085572;28;20036;-82
2023/05/06 01:18:10;;;;;;;12.80;11.32;;;;;;;;;;5085737;28;20041;-81
2023/05/06 01:20:37;;;;;;;14.50;11.50;;;;;;;;;;5085058;28;20176;-82
2023/05/06 01:23:06;;;;;;;15.77;11.63;;;;;;;;;;5089788;28;20048;-82
2023/05/06 01:25:33;;;;;;;12.45;10.55;;;;;;;;;;5091670;28;20043;-81
2023/05/06 01:27:59;;;;;;;11.75;10.32;;;;;;;;;;5088796;28;20513;-83
2023/05/06 01:30:29;;;;;;;11.52;9.98;;;;;;;;;;5085857;28;20098;-83
2023/05/06 01:33:04;;;;;;;11.25;10.02;;;;;;;;;;5085167;28;20075;-82
2023/05/06 01:35:33;;;;;;;13.13;10.63;;;;;;;;;;5085601;28;20044;-82
2023/05/06 01:38:05;;;;;;;13.02;10.18;;;;;;;;;;5085911;28;20033;-82
2023/05/06 01:40:32;;;;;;;12.35;11.05;;;;;;;;;;5085907;28;20048;-82
2023/05/06 01:43:00;;;;;;;12.30;10.52;;;;;;;;;;5085760;28;20491;-81
2023/05/06 01:45:27;;;;;;;13.38;10.73;;;;;;;;;;5086453;28;20050;-80
2023/05/06 01:47:53;;;;;;;16.23;11.48;;;;;;;;;;5085950;28;20037;-82
2023/05/06 01:50:19;;;;;;;13.85;11.82;;;;;;;;;;5085423;28;20044;-82
2023/05/06 01:52:55;;;;;;;12.88;11.13;;;;;;;;;;5085636;28;20052;-82
2023/05/06 01:55:21;;;;;;;14.50;10.88;;;;;;;;;;5084655;28;20052;-82
2023/05/06 01:57:47;;;;;;;14.48;11.93;;;;;;;;;;5083522;28;20407;-82
2023/05/06 02:00:13;;;;;;;12.75;11.07;;;;;;;;;;5085134;28;20045;-81
2023/05/06 02:02:39;;;;;;;14.00;11.32;;;;;;;;;;5084552;28;20045;-83
2023/05/06 02:05:05;;;;;;;13.30;11.68;;;;;;;;;;5084504;28;20056;-83
2023/05/06 02:07:31;;;;;;;14.05;12.60;;;;;;;;;;5083169;28;20072;-82
2023/05/06 02:09:57;;;;;;;12.73;11.00;;;;;;;;;;5083718;28;20040;-82
2023/05/06 02:12:23;;;;;;;14.02;12.52;;;;;;;;;;5083567;28;20046;-81
2023/05/06 02:14:49;;;;;;;13.40;12.00;;;;;;;;;;5084313;28;20459;-82
2023/05/06 02:17:15;;;;;;;15.30;11.68;;;;;;;;;;5084627;28;20050;-84
2023/05/06 02:19:41;;;;;;;14.82;12.13;;;;;;;;;;5084161;28;20411;-82
2023/05/06 02:22:07;;;;;;;13.57;11.93;;;;;;;;;;5084617;28;20040;-82
2023/05/06 02:24:33;;;;;;;14.15;12.15;;;;;;;;;;5084557;28;20043;-81
2023/05/06 02:27:00;;;;;;;14.68;10.80;;;;;;;;;;5084100;28;20068;-82
2023/05/06 02:29:26;;;;;;;12.32;10.88;;;;;;;;;;5083008;28;20052;-82
2023/05/06 02:31:52;;;;;;;12.90;11.50;;;;;;;;;;5083406;28;20066;-83
2023/05/06 02:34:18;;;;;;;13.50;11.80;;;;;;;;;;5083284;28;20127;-82
2023/05/06 02:36:45;;;;;;;14.18;11.35;;;;;;;;;;5065942;28;20076;-82
2023/05/06 02:39:10;;;;;;;12.35;11.15;;;;;;;;;;5081844;28;20041;-82
2023/05/06 02:41:36;;;;;;;327.75;14.82;;;;;;;;;;5081255;28;20139;-83
2023/05/06 02:44:02;;;;;;;369.02;14.25;;;;;;;;;;5083307;28;20043;-82
2023/05/06 02:46:29;;;;;;;378.88;14.25;;;;;;;;;;5082601;28;20075;-82
2023/05/06 02:48:54;;;;;;;182.52;11.43;;;;;;;;;;5083383;28;20048;-83
2023/05/06 02:51:20;;;;;;;182.20;10.55;;;;;;;;;;5083245;28;20495;-82
2023/05/06 02:53:47;;;;;;;180.77;10.35;;;;;;;;;;5083985;28;20056;-82
2023/05/06 02:56:12;;;;;;;88.28;8.25;;;;;;;;;;5083390;28;20045;-83
2023/05/06 02:58:38;;;;;;;41.97;7.45;;;;;;;;;;5083893;28;20078;-82
2023/05/06 03:01:05;;;;;;;22.65;5.63;;;;;;;;;;5083416;28;20100;-82
2023/05/06 03:03:31;;;;;;;46.75;5.60;;;;;;;;;;5083653;28;20067;-81
2023/05/06 03:05:57;;;;;;;106.25;7.90;;;;;;;;;;5083620;28;20040;-82
2023/05/06 03:08:23;;;;;;;257.10;10.50;;;;;;;;;;5083137;28;20052;-82
2023/05/06 03:10:49;;;;;;;62.50;8.57;;;;;;;;;;5087213;28;20045;-82
2023/05/06 03:13:15;;;;;;;147.93;9.13;;;;;;;;;;5088040;28;20044;-82
2023/05/06 03:15:41;;;;;;;197.73;9.80;;;;;;;;;;5082243;28;20056;-83
2023/05/06 03:18:07;;;;;;;122.57;9.55;;;;;;;;;;5065082;28;20048;-82
2023/05/06 03:20:33;;;;;;;159.02;10.65;;;;;;;;;;5082617;28;20052;-82
2023/05/06 03:22:59;;;;;;;115.90;11.00;;;;;;;;;;5081658;28;20045;-82
2023/05/06 03:25:25;;;;;;;194.80;11.65;;;;;;;;;;5082560;28;20051;-82
2023/05/06 03:27:51;;;;;;;61.42;10.30;;;;;;;;;;5082309;28;20127;-82
2023/05/06 03:30:17;;;;;;;111.20;11.70;;;;;;;;;;5082043;28;20079;-82
2023/05/06 03:32:44;;;;;;;100.75;11.30;;;;;;;;;;5083010;28;20045;-82
2023/05/06 03:35:10;;;;;;;114.88;11.07;;;;;;;;;;5085955;28;20487;-82
2023/05/06 03:37:36;;;;;;;78.00;11.05;;;;;;;;;;5087963;28;20069;-82
2023/05/06 03:40:03;;;;;;;53.42;11.50;;;;;;;;;;5086161;28;20175;-82
2023/05/06 03:42:30;;;;;;;175.02;12.95;;;;;;;;;;5081391;28;20045;-82
2023/05/06 03:44:56;;;;;;;108.43;12.45;;;;;;;;;;5081684;28;20048;-82
2023/05/06 03:47:22;;;;;;;111.68;10.43;;;;;;;;;;5080961;28;20053;-82
2023/05/06 03:49:47;;;;;;;59.40;9.40;;;;;;;;;;5080776;28;20041;-82
2023/05/06 03:52:13;;;;;;;52.28;10.30;;;;;;;;;;5080242;28;20056;-83
2023/05/06 03:54:39;;;;;;;41.65;9.10;;;;;;;;;;5079875;28;20072;-82
2023/05/06 03:57:06;;;;;;;117.10;11.55;;;;;;;;;;5080069;28;20491;-82
2023/05/06 03:59:32;;;;;;;65.65;10.98;;;;;;;;;;5078842;28;20044;-83
2023/05/06 04:01:58;;;;;;;42.05;9.85;;;;;;;;;;5080652;28;20078;-83
2023/05/06 04:04:26;;;;;;;60.15;10.27;;;;;;;;;;5080580;28;20040;-82
2023/05/06 04:06:52;;;;;;;56.75;11.32;;;;;;;;;;5080644;28;20057;-83
2023/05/06 04:09:18;;;;;;;57.75;10.63;;;;;;;;;;5078979;28;20049;-83
2023/05/06 04:11:44;;;;;;;80.80;11.63;;;;;;;;;;5080210;28;20036;-83
2023/05/06 04:14:10;;;;;;;52.78;9.95;;;;;;;;;;5080335;28;20045;-82
2023/05/06 04:16:36;;;;;;;25.75;9.50;;;;;;;;;;5081035;28;20102;-83
2023/05/06 04:19:02;;;;;;;80.93;11.93;;;;;;;;;;5080195;28;20441;-82
2023/05/06 04:21:28;;;;;;;94.32;10.95;;;;;;;;;;5084199;28;20068;-82
2023/05/06 04:23:54;;;;;;;90.93;12.35;;;;;;;;;;5084609;28;20044;-83
2023/05/06 04:26:21;;;;;;;57.80;12.48;;;;;;;;;;5083969;28;20449;-81
2023/05/06 04:28:47;;;;;;;82.88;12.05;;;;;;;;;;5083763;28;20045;-82
2023/05/06 04:31:13;;;;;;;28.63;10.93;;;;;;;;;;5083491;28;20450;-82
2023/05/06 04:33:42;;;;;;;33.80;11.43;;;;;;;;;;5082852;28;20044;-83
2023/05/06 04:36:08;;;;;;;72.72;11.77;;;;;;;;;;5082736;28;20047;-82
2023/05/06 04:38:36;;;;;;;161.90;13.48;;;;;;;;;;5082728;28;20040;-82
2023/05/06 04:41:03;;;;;;;112.28;11.50;;;;;;;;;;5082126;28;20059;-83
2023/05/06 04:43:29;;;;;;;106.43;11.35;;;;;;;;;;5082544;28;20053;-82
2023/05/06 04:45:56;;;;;;;87.10;11.05;;;;;;;;;;5082320;28;20071;-83
2023/05/06 04:48:22;;;;;;;116.85;11.75;;;;;;;;;;5064112;28;20053;-82
2023/05/06 04:50:49;;;;;;;122.15;12.15;;;;;;;;;;5082159;28;20123;-82
2023/05/06 04:53:15;;;;;;;159.25;11.60;;;;;;;;;;5083015;28;20136;-82
2023/05/06 04:55:41;;;;;;;151.05;12.07;;;;;;;;;;5082692;28;20045;-82
2023/05/06 04:58:07;;;;;;;94.32;10.85;;;;;;;;;;5082724;28;20045;-82
2023/05/06 05:00:33;;;;;;;107.43;9.95;;;;;;;;;;5083089;28;20064;-83
2023/05/06 05:03:00;;;;;;;142.57;11.48;;;;;;;;;;5082214;28;20041;-81
2023/05/06 05:05:27;;;;;;;119.93;11.23;;;;;;;;;;5082196;28;20052;-82
2023/05/06 05:07:53;;;;;;;89.05;10.27;;;;;;;;;;5082362;28;20044;-82
2023/05/06 05:10:19;;;;;;;101.28;9.43;;;;;;;;;;5082845;28;20040;-82
2023/05/06 05:12:45;;;;;;;83.00;10.00;;;;;;;;;;5082955;28;20045;-82
2023/05/06 05:15:11;;;;;;;96.28;9.77;;;;;;;;;;5082833;28;20056;-82
2023/05/06 05:17:37;;;;;;;94.32;9.35;;;;;;;;;;5082412;28;20048;-83
2023/05/06 05:20:04;;;;;;;67.25;8.10;;;;;;;;;;5083165;28;20055;-82
2023/05/06 05:22:30;;;;;;;24.25;7.47;;;;;;;;;;5083583;28;20193;-83
2023/05/06 05:24:56;;;;;;;28.05;8.05;;;;;;;;;;5081786;28;20049;-81
2023/05/06 05:27:22;;;;;;;36.03;7.88;;;;;;;;;;5082679;28;20068;-82
2023/05/06 05:29:48;;;;;;;19.40;7.82;;;;;;;;;;5082391;28;20044;-82
2023/05/06 05:32:15;;;;;;;93.53;9.32;;;;;;;;;;5082934;28;20120;-82
2023/05/06 05:34:41;;;;;;;38.33;8.63;;;;;;;;;;5087700;28;20044;-83
2023/05/06 05:37:07;;;;;;;138.88;9.88;;;;;;;;;;5091718;28;20067;-83
2023/05/06 05:39:33;;;;;;;34.22;8.40;;;;;;;;;;5090479;28;20548;-82
2023/05/06 05:41:59;;;;;;;91.93;9.23;;;;;;;;;;5087215;28;20045;-81
2023/05/06 05:44:25;;;;;;;26.45;8.07;;;;;;;;;;5089752;28;20066;-82
2023/05/06 05:46:51;;;;;;;29.67;7.70;;;;;;;;;;5088372;28;20044;-83
2023/05/06 05:49:17;;;;;;;37.13;8.32;;;;;;;;;;5087062;28;20079;-84
2023/05/06 05:51:43;;;;;;;96.15;9.35;;;;;;;;;;5082994;28;20052;-84
2023/05/06 05:54:09;;;;;;;57.28;9.18;;;;;;;;;;5083203;28;20078;-82
2023/05/06 05:56:35;;;;;;;29.23;9.23;;;;;;;;;;5082968;28;20048;-82
2023/05/06 05:59:01;;;;;;;81.38;10.35;;;;;;;;;;5083557;28;20048;-81
2023/05/06 06:01:28;;;;;;;37.55;9.27;;;;;;;;;;5081639;28;20049;-81
2023/05/06 06:03:54;;;;;;;35.55;9.82;;;;;;;;;;5082854;28;20044;-82
2023/05/06 06:06:21;;;;;;;46.17;11.20;;;;;;;;;;5083008;28;20052;-83
2023/05/06 06:08:47;;;;;;;101.22;12.25;;;;;;;;;;5082795;28;20048;-82
2023/05/06 06:11:13;;;;;;;30.58;11.77;;;;;;;;;;5083216;28;20276;-82
2023/05/06 06:13:39;;;;;;;26.15;13.20;;;;;;;;;;5083087;28;20056;-82
2023/05/06 06:16:05;;;;;;;49.70;13.63;;;;;;;;;;5082688;28;20051;-82
2023/05/06 06:18:31;;;;;;;47.53;14.60;;;;;;;;;;5082700;28;20052;-82
2023/05/06 06:20:57;;;;;;;20.10;14.35;;;;;;;;;;5082985;28;20124;-82
2023/05/06 06:23:23;;;;;;;15.20;13.68;;;;;;;;;;5082102;28;20044;-82
2023/05/06 06:25:49;;;;;;;16.02;13.70;;;;;;;;;;5082473;28;20170;-83
2023/05/06 06:28:15;;;;;;;17.20;14.25;;;;;;;;;;5083344;28;20049;-83
2023/05/06 06:30:41;;;;;;;16.00;13.65;;;;;;;;;;5082826;28;20067;-82
2023/05/06 06:33:08;;;;;;;16.48;14.60;;;;;;;;;;5081921;28;20053;-82
2023/05/06 06:35:34;;;;;;;17.33;14.95;;;;;;;;;;5082037;28;20040;-81
2023/05/06 06:38:01;;;;;;;16.45;14.65;;;;;;;;;;5081222;28;20036;-83
2023/05/06 06:40:27;;;;;;;18.52;15.00;;;;;;;;;;5081604;28;20104;-83
2023/05/06 06:42:53;;;;;;;17.00;15.23;;;;;;;;;;5079853;28;20401;-82
2023/05/06 06:45:19;;;;;;;16.83;14.95;;;;;;;;;;5080624;28;20412;-82
2023/05/06 06:47:45;;;;;;;19.30;16.67;;;;;;;;;;5079961;28;20047;-83
2023/05/06 06:50:12;;;;;;;17.25;15.38;;;;;;;;;;5080830;28;20415;-82
2023/05/06 06:52:38;;;;;;;16.58;14.75;;;;;;;;;;5080392;28;20102;-83
2023/05/06 06:55:04;;;;;;;18.13;15.52;;;;;;;;;;5080738;28;20044;-81
2023/05/06 06:57:30;;;;;;;18.50;15.65;;;;;;;;;;5081645;28;20070;-82
2023/05/06 06:59:56;;;;;;;18.77;16.48;;;;;;;;;;5081231;28;20044;-82
2023/05/06 07:02:22;;;;;;;18.13;16.23;;;;;;;;;;5080666;28;20071;-82
2023/05/06 07:04:48;;;;;;;20.90;17.35;;;;;;;;;;5079409;28;20044;-84
2023/05/06 07:07:14;;;;;;;18.15;16.25;;;;;;;;;;5079809;28;20051;-83
2023/05/06 07:09:41;;;;;;;18.42;16.42;;;;;;;;;;5075689;28;20044;-82
2023/05/06 07:12:07;;;;;;;20.27;17.90;;;;;;;;;;5074683;28;20135;-82
2023/05/06 07:14:33;;;;;;;19.10;17.10;;;;;;;;;;5074293;28;20048;-82
2023/05/06 07:16:59;;;;;;;18.77;16.58;;;;;;;;;;5074233;28;20051;-82
2023/05/06 07:19:26;;;;;;;18.10;16.30;;;;;;;;;;5074359;28;20108;-82
2023/05/06 07:21:52;;;;;;;18.23;16.33;;;;;;;;;;5074418;28;20118;-82
2023/05/06 07:24:18;;;;;;;17.33;15.10;;;;;;;;;;5074670;28;20518;-82
2023/05/06 07:26:44;;;;;;;16.92;14.85;;;;;;;;;;5075129;28;20071;-82
2023/05/06 07:29:11;;;;;;;17.10;15.30;;;;;;;;;;5074710;28;20072;-82
2023/05/06 07:31:37;;;;;;;15.60;13.80;;;;;;;;;;5078614;28;20044;-81
2023/05/06 07:34:03;;;;;;;16.77;14.77;;;;;;;;;;5080468;28;20048;-82
2023/05/06 07:36:34;;;;;;;17.85;15.95;;;;;;;;;;5078993;28;20075;-83
2023/05/06 07:39:00;;;;;;;17.73;15.73;;;;;;;;;;5080015;28;20048;-83
2023/05/06 07:41:26;;;;;;;17.38;15.02;;;;;;;;;;5079936;28;20048;-82
2023/05/06 07:43:52;;;;;;;18.83;15.50;;;;;;;;;;5080621;28;20049;-83
2023/05/06 07:46:18;;;;;;;18.75;15.75;;;;;;;;;;5081283;28;20044;-83
2023/05/06 07:48:44;;;;;;;19.85;16.05;;;;;;;;;;5080122;28;20056;-83
2023/05/06 07:51:10;;;;;;;19.98;16.52;;;;;;;;;;5078453;28;20064;-82
2023/05/06 07:53:38;;;;;;;18.77;15.80;;;;;;;;;;5085062;28;20044;-83
2023/05/06 07:56:05;;;;;;;20.83;16.90;;;;;;;;;;5086376;28;20083;-82
2023/05/06 07:58:31;;;;;;;19.77;16.60;;;;;;;;;;5085032;28;20053;-83
2023/05/06 08:00:58;;;;;;;19.63;16.85;;;;;;;;;;5083870;28;20586;-82
2023/05/06 08:03:25;;;;;;;23.50;17.63;;;;;;;;;;5079421;28;20043;-81
2023/05/06 08:05:51;;;;;;;18.67;15.98;;;;;;;;;;5079391;28;20048;-82
2023/05/06 08:08:18;;;;;;;20.42;17.25;;;;;;;;;;5078890;28;20043;-83
2023/05/06 08:10:44;;;;;;;23.10;18.85;;;;;;;;;;5079087;28;20467;-82
2023/05/06 08:13:10;;;;;;;20.17;18.08;;;;;;;;;;5080029;28;20044;-83
2023/05/06 08:15:36;;;;;;;22.15;18.83;;;;;;;;;;5081491;28;20048;-83
2023/05/06 08:18:02;;;;;;;22.48;20.02;;;;;;;;;;5084831;28;20040;-82
2023/05/06 08:20:28;;;;;;;23.23;19.60;;;;;;;;;;5087747;28;20123;-81
2023/05/06 08:22:54;;;;;;;23.90;19.52;;;;;;;;;;5085361;28;20379;-82
2023/05/06 08:25:20;;;;;;;24.77;19.88;;;;;;;;;;5079437;28;20036;-82
2023/05/06 08:27:46;;;;;;;22.40;18.73;;;;;;;;;;5079140;28;20044;-82
2023/05/06 08:30:13;;;;;;;25.63;19.88;;;;;;;;;;5079646;28;20044;-82
2023/05/06 08:32:39;;;;;;;21.38;18.25;;;;;;;;;;5079571;28;20119;-82
2023/05/06 08:35:06;;;;;;;23.85;19.60;;;;;;;;;;5079692;28;20063;-83
2023/05/06 08:37:34;;;;;;;21.38;18.10;;;;;;;;;;5079666;28;20087;-83
2023/05/06 08:40:01;;;;;;;22.17;19.17;;;;;;;;;;5080180;28;20123;-83
2023/05/06 08:42:27;;;;;;;22.73;18.15;;;;;;;;;;5079719;28;20036;-83
2023/05/06 08:44:55;;;;;;;21.15;18.02;;;;;;;;;;5079339;28;20507;-83
2023/05/06 08:47:21;;;;;;;21.83;18.90;;;;;;;;;;5079323;28;20186;-83
2023/05/06 08:49:48;;;;;;;20.80;18.30;;;;;;;;;;5079498;28;20055;-83
2023/05/06 08:52:14;;;;;;;22.40;18.23;;;;;;;;;;5079091;28;20059;-83
2023/05/06 08:54:40;;;;;;;22.08;17.95;;;;;;;;;;5079982;28;20040;-83
2023/05/06 08:57:10;;;;;;;21.85;17.88;;;;;;;;;;5079781;28;20072;-83
2023/05/06 08:59:36;;;;;;;21.17;18.63;;;;;;;;;;5079096;28;20051;-83
2023/05/06 09:02:03;;;;;;;22.05;19.30;;;;;;;;;;5080250;28;20051;-84
2023/05/06 09:04:29;;;;;;;22.70;19.63;;;;;;;;;;5080282;28;20072;-83
2023/05/06 09:06:57;;;;;;;23.90;19.33;;;;;;;;;;5084076;28;20131;-83
2023/05/06 09:09:23;;;;;;;20.98;17.52;;;;;;;;;;5083533;28;20068;-83
2023/05/06 09:11:56;;;;;;;22.77;17.95;;;;;;;;;;5082560;28;20052;-83
2023/05/06 09:14:22;;;;;;;18.67;16.55;;;;;;;;;;5081901;28;20091;-84
2023/05/06 09:16:49;;;;;;;17.08;14.23;;;;;;;;;;5082074;28;20052;-82
2023/05/06 09:19:16;;;;;;;18.00;13.93;;;;;;;;;;5083403;28;20131;-82
2023/05/06 09:21:43;;;;;;;19.10;15.18;;;;;;;;;;5083171;28;20052;-82
2023/05/06 09:24:10;;;;;;;15.65;12.20;;;;;;;;;;5083271;28;20040;-81
2023/05/06 09:26:37;;;;;;;10.38;8.20;;;;;;;;;;5083962;28;20044;-83
2023/05/06 09:29:04;;;;;;;13.82;10.85;;;;;;;;;;5082705;28;20040;-82
2023/05/06 09:31:30;;;;;;;13.48;10.10;;;;;;;;;;5083021;28;20036;-83
2023/05/06 09:33:57;;;;;;;13.10;10.05;;;;;;;;;;5081802;28;20252;-83
2023/05/06 09:36:24;;;;;;;13.10;9.70;;;;;;;;;;5082317;28;20045;-83
2023/05/06 09:38:52;;;;;;;12.40;10.00;;;;;;;;;;5083558;28;20368;-83
2023/05/06 09:41:19;;;;;;;13.90;10.52;;;;;;;;;;5081972;28;20411;-83
2023/05/06 09:43:48;;;;;;;16.08;11.30;;;;;;;;;;5081973;28;20048;-83
2023/05/06 09:46:14;;;;;;;15.15;12.02;;;;;;;;;;5082039;28;20040;-83
2023/05/06 09:48:41;;;;;;;18.35;13.65;;;;;;;;;;5081209;28;20090;-82
2023/05/06 09:51:07;;;;;;;13.75;11.20;;;;;;;;;;5082378;28;20102;-83
2023/05/06 09:53:37;;;;;;;16.17;11.27;;;;;;;;;;5082540;28;20100;-83
2023/05/06 09:56:05;;;;;;;14.77;10.88;;;;;;;;;;5082634;28;20098;-83
2023/05/06 09:58:32;;;;;;;12.10;7.10;;;;;;;;;;5083105;28;20052;-82
2023/05/06 10:00:58;;;;;;;10.57;7.35;;;;;;;;;;5082190;28;20045;-82
2023/05/06 10:03:25;;;;;;;11.70;7.93;;;;;;;;;;5083722;28;20041;-82
2023/05/06 10:05:53;;;;;;;15.73;8.98;;;;;;;;;;5090146;28;20040;-82
2023/05/06 10:08:20;;;;;;;14.65;10.27;;;;;;;;;;5087411;28;20052;-81
2023/05/06 10:10:48;;;;;;;16.27;9.95;;;;;;;;;;5087540;28;20047;-83
2023/05/06 10:13:15;;;;;;;16.00;11.15;;;;;;;;;;5085596;28;20048;-83
2023/05/06 10:15:42;;;;;;;18.52;13.10;;;;;;;;;;5083356;28;20123;-82
2023/05/06 10:18:08;;;;;;;17.13;12.63;;;;;;;;;;5081314;28;20047;-83
2023/05/06 10:20:35;;;;;;;16.70;11.43;;;;;;;;;;5082666;28;20052;-83
2023/05/06 10:23:20;;;;;;;17.10;11.52;;;;;;;;;;5081929;28;20118;-83
2023/05/06 10:25:50;;;;;;;14.02;11.15;;;;;;;;;;5083725;28;20067;-83
2023/05/06 10:28:18;;;;;;;15.40;12.40;;;;;;;;;;5083380;28;20170;-83
2023/05/06 10:30:44;;;;;;;15.25;10.40;;;;;;;;;;5082337;28;20044;-83
2023/05/06 10:33:11;;;;;;;14.80;10.95;;;;;;;;;;5083053;28;20515;-83
2023/05/06 10:35:37;;;;;;;14.70;10.70;;;;;;;;;;5082081;28;20041;-83
2023/05/06 10:38:04;;;;;;;13.07;9.50;;;;;;;;;;5081296;28;20040;-81
2023/05/06 10:40:31;;;;;;;11.38;9.10;;;;;;;;;;5082659;28;20055;-82
2023/05/06 10:43:16;;;;;;;13.60;10.60;;;;;;;;;;5065178;28;20044;-81
2023/05/06 10:46:01;;;;;;;13.65;10.60;;;;;;;;;;5082821;28;20045;-82
2023/05/06 10:48:28;;;;;;;15.35;11.38;;;;;;;;;;5083264;28;20040;-82
2023/05/06 10:51:13;;;;;;;14.25;11.05;;;;;;;;;;5083762;28;20040;-82
2023/05/06 10:53:57;;;;;;;12.98;9.98;;;;;;;;;;5088116;28;20053;-81
2023/05/06 10:56:24;;;;;;;11.55;9.90;;;;;;;;;;5089929;28;20049;-81
2023/05/06 10:58:50;;;;;;;11.80;9.00;;;;;;;;;;5085314;28;20067;-82
2023/05/06 11:01:16;;;;;;;13.15;10.05;;;;;;;;;;5082509;28;20048;-82
2023/05/06 11:03:45;;;;;;;11.98;9.27;;;;;;;;;;5081772;28;20169;-82
2023/05/06 11:06:11;;;;;;;12.00;10.02;;;;;;;;;;5082155;28;20049;-82
2023/05/06 11:08:38;;;;;;;12.75;9.73;;;;;;;;;;5081363;28;20049;-82
2023/05/06 11:11:24;;;;;;;13.32;9.68;;;;;;;;;;5082150;28;20047;-82
2023/05/06 11:13:52;;;;;;;12.45;9.40;;;;;;;;;;5074962;28;20082;-81
2023/05/06 11:16:38;;;;;;;12.52;8.85;;;;;;;;;;5079961;28;20078;-83
2023/05/06 11:19:04;;;;;;;13.45;9.40;;;;;;;;;;5080909;28;20051;-82
2023/05/06 11:21:31;;;;;;;11.90;9.07;;;;;;;;;;5081172;28;20063;-82
2023/05/06 11:23:57;;;;;;;16.38;10.52;;;;;;;;;;5080940;28;20119;-82
2023/05/06 11:26:23;;;;;;;11.85;10.13;;;;;;;;;;5080918;28;20487;-82
2023/05/06 11:28:50;;;;;;;12.90;10.27;;;;;;;;;;5080641;28;20049;-82
2023/05/06 11:31:16;;;;;;;17.95;11.85;;;;;;;;;;5080661;28;20048;-82
2023/05/06 11:33:46;;;;;;;14.63;12.10;;;;;;;;;;5079128;28;20066;-81
2023/05/06 11:36:20;;;;;;;13.52;11.77;;;;;;;;;;5079881;28;20049;-82
2023/05/06 11:38:51;;;;;;;15.57;11.93;;;;;;;;;;5080103;28;20079;-82
2023/05/06 11:41:17;;;;;;;14.50;11.80;;;;;;;;;;5081574;28;20044;-82
2023/05/06 11:43:48;;;;;;;15.45;11.98;;;;;;;;;;5081379;28;20044;-82
2023/05/06 11:46:15;;;;;;;14.52;11.60;;;;;;;;;;5081372;28;20048;-82
2023/05/06 11:48:42;;;;;;;15.38;12.13;;;;;;;;;;5080672;28;20040;-82
2023/05/06 11:51:09;;;;;;;17.52;11.93;;;;;;;;;;5079668;28;20388;-82
2023/05/06 11:53:35;;;;;;;14.55;11.95;;;;;;;;;;5080978;28;20044;-82
2023/05/06 11:56:01;;;;;;;15.75;11.60;;;;;;;;;;5080818;28;20048;-82
2023/05/06 11:58:29;;;;;;;16.77;12.05;;;;;;;;;;5080714;28;20066;-82
2023/05/06 12:00:59;;;;;;;14.18;12.40;;;;;;;;;;5081507;28;20492;-82
2023/05/06 12:03:27;;;;;;;13.90;12.20;;;;;;;;;;5081282;28;20047;-82
2023/05/06 12:05:54;;;;;;;14.90;12.32;;;;;;;;;;5081043;28;20036;-82
2023/05/06 12:08:24;;;;;;;14.25;11.68;;;;;;;;;;5080140;28;20395;-82
2023/05/06 12:10:58;;;;;;;16.30;11.80;;;;;;;;;;5080689;28;20467;-82
2023/05/06 12:13:25;;;;;;;12.48;11.18;;;;;;;;;;5080484;28;20127;-82
2023/05/06 12:15:53;;;;;;;13.18;10.55;;;;;;;;;;5081121;28;20036;-82
2023/05/06 12:18:19;;;;;;;15.10;10.80;;;;;;;;;;5088622;28;20049;-82
2023/05/06 12:20:46;;;;;;;12.02;10.27;;;;;;;;;;5084879;28;20484;-82
2023/05/06 12:23:13;;;;;;;12.07;10.52;;;;;;;;;;5085313;28;20079;-82
2023/05/06 12:25:39;;;;;;;11.98;10.15;;;;;;;;;;5082987;28;20044;-80
2023/05/06 12:28:18;;;;;;;12.07;9.65;;;;;;;;;;5081592;28;20051;-81
2023/05/06 12:30:45;;;;;;;13.75;9.85;;;;;;;;;;5081588;28;20076;-81
2023/05/06 12:33:11;;;;;;;12.95;9.93;;;;;;;;;;5081417;28;20044;-81
2023/05/06 12:35:37;;;;;;;13.32;10.25;;;;;;;;;;5080754;28;20403;-81
2023/05/06 12:38:07;;;;;;;11.55;10.00;;;;;;;;;;5081132;28;20177;-81
2023/05/06 12:40:33;;;;;;;12.95;10.23;;;;;;;;;;5083139;28;20036;-81
2023/05/06 12:43:00;;;;;;;10.95;9.65;;;;;;;;;;5085176;28;20051;-81
2023/05/06 12:45:26;;;;;;;13.18;9.90;;;;;;;;;;5085035;28;20047;-81
2023/05/06 12:47:53;;;;;;;10.13;9.10;;;;;;;;;;5084737;28;20045;-82
2023/05/06 12:50:31;;;;;;;12.52;9.73;;;;;;;;;;5084515;28;20110;-82
2023/05/06 12:52:57;;;;;;;12.80;9.00;;;;;;;;;;5084313;28;20063;-82
2023/05/06 12:55:24;;;;;;;11.40;9.55;;;;;;;;;;5085212;28;20105;-82
2023/05/06 12:57:51;;;;;;;11.80;9.20;;;;;;;;;;5084581;28;20050;-81
2023/05/06 13:00:17;;;;;;;12.63;9.48;;;;;;;;;;5084446;28;20044;-81
2023/05/06 13:02:44;;;;;;;11.38;9.50;;;;;;;;;;5084251;28;20047;-82
2023/05/06 13:05:10;;;;;;;13.02;9.00;;;;;;;;;;5084783;28;20101;-82
2023/05/06 13:07:36;;;;;;;18.90;10.13;;;;;;;;;;5085503;28;20471;-83
2023/05/06 13:10:04;;;;;;;18.75;11.95;;;;;;;;;;5085650;28;20093;-80
2023/05/06 13:12:31;;;;;;;20.77;12.73;;;;;;;;;;5084106;28;20048;-79
2023/05/06 13:14:57;;;;;;;22.50;14.38;;;;;;;;;;5082837;28;20072;-78
2023/05/06 13:17:23;;;;;;;20.58;15.00;;;;;;;;;;5083775;28;20044;-80
2023/05/06 13:19:49;;;;;;;22.55;16.25;;;;;;;;;;5084918;28;20040;-79
2023/05/06 13:22:16;;;;;;;22.52;15.52;;;;;;;;;;5082686;28;20084;-79
2023/05/06 13:24:42;;;;;;;23.67;18.65;;;;;;;;;;5081803;28;20055;-78
2023/05/06 13:27:08;;;;;;;26.77;20.38;;;;;;;;;;5081540;28;20049;-79
2023/05/06 13:29:34;;;;;;;20.85;17.88;;;;;;;;;;5080632;28;20503;-78
2023/05/06 13:32:01;;;;;;;23.77;20.30;;;;;;;;;;5084501;28;20041;-79
2023/05/06 13:34:27;;;;;;;28.13;19.85;;;;;;;;;;5086160;28;20045;-78
2023/05/06 13:36:53;;;;;;;23.42;17.35;;;;;;;;;;5082125;28;20056;-79
2023/05/06 13:39:20;;;;;;;24.30;19.80;;;;;;;;;;5084114;28;20045;-79
2023/05/06 13:41:48;;;;;;;21.95;17.35;;;;;;;;;;5084246;28;20048;-78
2023/05/06 13:44:15;;;;;;;24.05;18.70;;;;;;;;;;5083764;28;20075;-80
2023/05/06 13:46:41;;;;;;;21.25;19.05;;;;;;;;;;5084061;28;20283;-80
2023/05/06 13:49:07;;;;;;;19.02;16.95;;;;;;;;;;5084199;28;20045;-81
2023/05/06 13:51:33;;;;;;;19.83;17.45;;;;;;;;;;5081669;28;20056;-80
2023/05/06 13:54:00;;;;;;;18.25;15.93;;;;;;;;;;5080896;28;20403;-80
2023/05/06 13:56:26;;;;;;;15.77;14.07;;;;;;;;;;5079217;28;20045;-79
2023/05/06 13:58:52;;;;;;;16.13;14.32;;;;;;;;;;5058172;28;20091;-80
2023/05/06 14:01:21;;;;;;;16.33;14.25;;;;;;;;;;5078235;28;20491;-79
2023/05/06 14:03:48;;;;;;;19.35;15.75;;;;;;;;;;5079794;28;20411;-80
2023/05/06 14:06:14;;;;;;;18.60;16.60;;;;;;;;;;5080900;28;20051;-79
2023/05/06 14:08:40;;;;;;;18.55;16.17;;;;;;;;;;5080037;28;20116;-79
2023/05/06 14:11:06;;;;;;;19.45;17.50;;;;;;;;;;5082430;28;20445;-79
2023/05/06 14:13:33;;;;;;;20.27;17.40;;;;;;;;;;5082117;28;20088;-80
2023/05/06 14:15:59;;;;;;;18.50;16.50;;;;;;;;;;5081549;28;20127;-80
2023/05/06 14:18:26;;;;;;;19.40;17.48;;;;;;;;;;5087527;28;20049;-80